Time;durP1;ratioP1;P1;durP2;ratioP2;P2;SDS_P1;SDS_P2;PMS_P1;PMS_P2;Temp;Humidity;BMP_temperature;BMP_pressure;BME280_temperature;BME280_humidity;BME280_pressure;Samples;Min_cycle;Max_cycle;Signal;HPM_P1;HPM_P2
2023/12/15 00:01:43;;;;;;;17.48;12.52;;;6.00;99.90;;;;;;5118960;27;20048;-76
2023/12/15 00:04:08;;;;;;;20.77;13.02;;;5.80;99.90;;;;;;5117796;27;20035;-76
2023/12/15 00:06:34;;;;;;;21.70;12.23;;;6.00;99.90;;;;;;5116818;27;20039;-77
2023/12/15 00:09:00;;;;;;;23.08;13.90;;;6.10;99.90;;;;;;5089152;27;20043;-76
2023/12/15 00:11:25;;;;;;;19.23;12.60;;;6.00;99.90;;;;;;5121894;27;20394;-76
2023/12/15 00:13:51;;;;;;;17.85;12.32;;;6.10;99.90;;;;;;5116067;27;20042;-77
2023/12/15 00:16:17;;;;;;;16.30;11.35;;;6.00;99.90;;;;;;5100927;27;20055;-76
2023/12/15 00:18:42;;;;;;;17.30;12.32;;;6.00;99.90;;;;;;5105216;27;20487;-77
2023/12/15 00:21:08;;;;;;;17.63;12.15;;;6.10;99.90;;;;;;5108587;27;20127;-76
2023/12/15 00:23:34;;;;;;;21.38;13.10;;;6.00;99.90;;;;;;5106027;27;20031;-76
2023/12/15 00:26:00;;;;;;;19.98;13.35;;;6.10;99.90;;;;;;5108776;28;20039;-77
2023/12/15 00:28:25;;;;;;;17.00;12.40;;;6.20;99.90;;;;;;5105466;27;20397;-76
2023/12/15 00:30:51;;;;;;;21.90;13.27;;;6.10;99.90;;;;;;5125968;27;20114;-77
2023/12/15 00:33:17;;;;;;;18.77;12.98;;;6.10;99.90;;;;;;5121727;27;20100;-77
2023/12/15 00:35:42;;;;;;;20.25;12.60;;;6.10;99.90;;;;;;5118574;27;20081;-77
2023/12/15 00:38:08;;;;;;;19.40;12.30;;;6.10;99.90;;;;;;5110283;27;20039;-77
2023/12/15 00:40:33;;;;;;;21.67;14.95;;;6.20;99.90;;;;;;5094798;27;20390;-77
2023/12/15 00:42:59;;;;;;;20.20;13.23;;;6.20;99.90;;;;;;5108730;28;20043;-77
2023/12/15 00:45:25;;;;;;;19.25;13.45;;;6.30;99.90;;;;;;5104988;27;20043;-77
2023/12/15 00:47:50;;;;;;;17.75;11.65;;;6.30;99.90;;;;;;5098485;28;20130;-77
2023/12/15 00:50:16;;;;;;;17.33;12.00;;;6.30;99.90;;;;;;5112614;27;20053;-76
2023/12/15 00:52:42;;;;;;;17.33;12.60;;;6.20;99.90;;;;;;5119519;27;20397;-77
2023/12/15 00:55:08;;;;;;;20.05;13.38;;;6.30;99.90;;;;;;5126677;27;20128;-77
2023/12/15 00:57:33;;;;;;;20.27;14.00;;;6.30;99.90;;;;;;5114657;27;20039;-77
2023/12/15 00:59:59;;;;;;;20.58;13.77;;;6.20;99.90;;;;;;5122841;27;20578;-77
2023/12/15 01:02:25;;;;;;;20.38;14.45;;;6.30;99.90;;;;;;5104280;27;20043;-77
2023/12/15 01:04:50;;;;;;;19.20;13.52;;;6.40;99.90;;;;;;5101032;28;20071;-77
2023/12/15 01:07:16;;;;;;;23.58;14.93;;;6.40;99.90;;;;;;5096060;27;20118;-77
2023/12/15 01:09:42;;;;;;;20.45;14.95;;;6.30;99.90;;;;;;5118656;27;20086;-77
2023/12/15 01:12:07;;;;;;;19.85;12.80;;;6.40;99.90;;;;;;5095577;28;20231;-77
2023/12/15 01:14:33;;;;;;;23.42;15.18;;;6.30;99.90;;;;;;5115158;27;20469;-77
2023/12/15 01:16:59;;;;;;;22.15;14.68;;;6.50;99.90;;;;;;5113159;27;20130;-77
2023/12/15 01:19:25;;;;;;;22.33;15.52;;;6.50;99.90;;;;;;5113625;27;20114;-77
2023/12/15 01:21:50;;;;;;;21.35;14.38;;;6.40;99.90;;;;;;5112182;27;20146;-77
2023/12/15 01:24:16;;;;;;;21.67;14.48;;;6.40;99.90;;;;;;5095690;27;20039;-77
2023/12/15 01:26:42;;;;;;;23.17;15.20;;;6.40;99.90;;;;;;5116609;27;20532;-77
2023/12/15 01:29:08;;;;;;;20.58;14.02;;;6.50;99.90;;;;;;5110829;27;20047;-77
2023/12/15 01:31:33;;;;;;;23.70;16.15;;;6.40;99.90;;;;;;5098497;27;20043;-77
2023/12/15 01:33:59;;;;;;;26.25;16.20;;;6.50;99.90;;;;;;5129754;27;20107;-77
2023/12/15 01:36:25;;;;;;;25.13;17.27;;;6.40;99.90;;;;;;5116310;27;20529;-77
2023/12/15 01:38:50;;;;;;;24.50;15.65;;;6.60;99.90;;;;;;5097305;28;20070;-77
2023/12/15 01:41:16;;;;;;;23.40;16.25;;;6.50;99.90;;;;;;5111196;27;20376;-77
2023/12/15 01:43:42;;;;;;;25.88;17.02;;;6.50;99.90;;;;;;5112311;27;20035;-77
2023/12/15 01:46:08;;;;;;;23.25;15.85;;;6.50;99.90;;;;;;5106065;27;20500;-77
2023/12/15 01:48:34;;;;;;;24.95;15.57;;;6.60;99.90;;;;;;5096076;27;20050;-77
2023/12/15 01:50:59;;;;;;;27.23;17.13;;;6.60;99.90;;;;;;5118763;27;20038;-77
2023/12/15 01:53:25;;;;;;;24.73;16.73;;;6.60;99.90;;;;;;5120079;27;20406;-77
2023/12/15 01:55:51;;;;;;;30.30;17.80;;;6.70;99.90;;;;;;5100891;27;20048;-77
2023/12/15 01:58:17;;;;;;;29.60;19.65;;;6.70;99.90;;;;;;5098715;28;20707;-77
2023/12/15 02:00:47;;;;;;;23.45;16.45;;;6.70;99.90;;;;;;5093364;27;20043;-77
2023/12/15 02:03:12;;;;;;;34.72;20.33;;;6.60;99.90;;;;;;5094543;27;20466;-77
2023/12/15 02:05:38;;;;;;;31.38;19.10;;;6.70;99.90;;;;;;5113146;27;20067;-77
2023/12/15 02:08:04;;;;;;;30.13;19.95;;;6.60;99.90;;;;;;5107837;27;20035;-77
2023/12/15 02:10:29;;;;;;;25.70;18.40;;;6.80;99.90;;;;;;5096112;28;20041;-77
2023/12/15 02:12:55;;;;;;;31.45;19.67;;;6.80;99.90;;;;;;5107965;27;20089;-77
2023/12/15 02:15:21;;;;;;;29.05;18.63;;;6.80;99.90;;;;;;5094452;28;20043;-77
2023/12/15 02:17:46;;;;;;;28.27;19.67;;;6.80;99.90;;;;;;5077580;28;20035;-77
2023/12/15 02:20:12;;;;;;;27.15;17.95;;;6.90;99.90;;;;;;5076053;28;20036;-77
2023/12/15 02:22:38;;;;;;;27.10;17.40;;;6.90;99.90;;;;;;5111695;27;20073;-77
2023/12/15 02:25:04;;;;;;;30.48;18.40;;;6.70;99.90;;;;;;5112168;27;20067;-77
2023/12/15 02:27:29;;;;;;;31.02;20.15;;;6.80;99.90;;;;;;5118214;27;20352;-77
2023/12/15 02:29:55;;;;;;;34.28;19.60;;;6.90;99.90;;;;;;5116436;27;20043;-77
2023/12/15 02:32:21;;;;;;;26.20;17.27;;;6.90;99.90;;;;;;5117978;27;20479;-77
2023/12/15 02:34:46;;;;;;;29.40;18.15;;;6.90;99.90;;;;;;5129038;28;20043;-77
2023/12/15 02:37:12;;;;;;;26.42;17.40;;;6.70;99.90;;;;;;5124241;28;20062;-76
2023/12/15 02:39:38;;;;;;;25.48;16.65;;;6.70;99.90;;;;;;5108192;28;20065;-77
2023/12/15 02:42:04;;;;;;;;;;;6.70;99.90;;;;;;5084778;28;20043;-77
2023/12/15 02:44:30;;;;;;;27.23;16.38;;;6.80;99.90;;;;;;5128582;28;20389;-77
2023/12/15 02:46:55;;;;;;;25.77;16.65;;;6.70;99.90;;;;;;5109552;28;20066;-77
2023/12/15 02:49:21;;;;;;;20.50;14.70;;;6.70;99.90;;;;;;5127156;28;20103;-77
2023/12/15 02:51:47;;;;;;;24.02;16.13;;;6.70;99.90;;;;;;5110904;28;20044;-77
2023/12/15 02:54:12;;;;;;;26.27;16.35;;;6.90;99.90;;;;;;5097606;28;20042;-77
2023/12/15 02:56:38;;;;;;;33.05;17.63;;;6.80;99.90;;;;;;5094846;28;20039;-77
2023/12/15 02:59:04;;;;;;;26.13;15.05;;;6.90;99.90;;;;;;5124164;28;20092;-77
2023/12/15 03:01:29;;;;;;;26.23;16.13;;;6.90;99.90;;;;;;5112774;28;20044;-77
2023/12/15 03:03:56;;;;;;;24.25;15.57;;;6.70;99.90;;;;;;5115391;28;20381;-78
2023/12/15 03:06:22;;;;;;;24.75;15.98;;;6.70;99.90;;;;;;5123852;28;20095;-78
2023/12/15 03:08:48;;;;;;;25.17;16.13;;;6.70;99.90;;;;;;5100834;28;20537;-78
2023/12/15 03:11:13;;;;;;;24.73;15.73;;;6.70;99.90;;;;;;5099195;28;20077;-77
2023/12/15 03:13:39;;;;;;;19.23;13.30;;;6.80;99.90;;;;;;5101114;28;20100;-77
2023/12/15 03:16:10;;;;;;;23.90;15.40;;;6.80;99.90;;;;;;5117149;28;20487;-78
2023/12/15 03:18:37;;;;;;;23.58;15.75;;;6.70;99.90;;;;;;5121357;28;20050;-77
2023/12/15 03:21:03;;;;;;;21.60;14.93;;;6.70;99.90;;;;;;5117759;28;20096;-77
2023/12/15 03:23:28;;;;;;;21.95;14.65;;;6.50;99.90;;;;;;5120987;28;20040;-77
2023/12/15 03:25:54;;;;;;;23.60;16.20;;;6.50;99.90;;;;;;5113139;28;20049;-77
2023/12/15 03:28:20;;;;;;;25.17;15.82;;;6.50;99.90;;;;;;5097934;28;20046;-77
2023/12/15 03:30:46;;;;;;;21.75;15.68;;;6.40;99.90;;;;;;5117972;28;20035;-77
2023/12/15 03:33:12;;;;;;;24.13;15.80;;;6.30;99.90;;;;;;5117647;28;20122;-77
2023/12/15 03:35:37;;;;;;;24.55;15.48;;;6.30;99.90;;;;;;5110217;28;20051;-77
2023/12/15 03:38:04;;;;;;;27.73;17.70;;;6.20;99.90;;;;;;5109693;28;20051;-77
2023/12/15 03:40:30;;;;;;;23.27;16.00;;;6.40;99.90;;;;;;5120101;27;20051;-77
2023/12/15 03:42:55;;;;;;;25.27;15.70;;;6.20;99.90;;;;;;5119757;27;20035;-77
2023/12/15 03:45:21;;;;;;;25.50;15.15;;;6.10;99.90;;;;;;5116854;27;20043;-77
2023/12/15 03:47:47;;;;;;;20.35;14.85;;;6.10;99.90;;;;;;5106825;27;20474;-77
2023/12/15 03:50:12;;;;;;;22.60;14.90;;;6.20;99.90;;;;;;5109314;27;20498;-77
2023/12/15 03:52:38;;;;;;;22.80;15.02;;;6.20;99.90;;;;;;5108846;27;20453;-77
2023/12/15 03:55:04;;;;;;;22.17;14.43;;;6.00;99.90;;;;;;5122333;27;20082;-77
2023/12/15 03:57:30;;;;;;;25.25;15.05;;;6.20;99.90;;;;;;5131682;27;20039;-78
2023/12/15 03:59:56;;;;;;;23.23;14.90;;;6.00;99.90;;;;;;5127715;27;20043;-77
2023/12/15 04:02:21;;;;;;;20.05;14.20;;;6.10;99.90;;;;;;5114210;27;20078;-77
2023/12/15 04:04:47;;;;;;;28.55;17.20;;;6.20;99.90;;;;;;5106280;28;20047;-77
2023/12/15 04:07:13;;;;;;;25.02;16.05;;;6.20;99.90;;;;;;5078384;28;20459;-77
2023/12/15 04:09:38;;;;;;;20.33;14.70;;;6.20;99.90;;;;;;5123037;27;20460;-77
2023/12/15 04:12:04;;;;;;;23.40;16.05;;;6.20;99.90;;;;;;5131266;27;20443;-77
2023/12/15 04:14:32;;;;;;;27.55;16.55;;;6.00;99.90;;;;;;5079948;27;20063;-77
2023/12/15 04:16:58;;;;;;;22.65;15.23;;;6.20;99.90;;;;;;5122790;27;20093;-77
2023/12/15 04:19:23;;;;;;;21.23;14.80;;;6.00;99.90;;;;;;5105701;27;20594;-77
2023/12/15 04:21:49;;;;;;;23.00;14.07;;;6.10;99.90;;;;;;5122831;27;20122;-77
2023/12/15 04:24:15;;;;;;;24.92;14.23;;;5.90;99.90;;;;;;5128821;27;20433;-77
2023/12/15 04:26:40;;;;;;;25.48;15.43;;;6.00;99.90;;;;;;5107510;27;20062;-77
2023/12/15 04:29:06;;;;;;;21.35;14.38;;;6.00;99.90;;;;;;5095347;27;20027;-77
2023/12/15 04:31:32;;;;;;;24.30;14.10;;;6.00;99.90;;;;;;5123045;27;20031;-77
2023/12/15 04:33:57;;;;;;;19.40;13.18;;;5.90;99.90;;;;;;5084499;27;20063;-77
2023/12/15 04:36:23;;;;;;;21.35;13.50;;;6.00;99.90;;;;;;5097152;27;20083;-77
2023/12/15 04:38:50;;;;;;;18.45;12.75;;;5.90;99.90;;;;;;5111349;27;20562;-77
2023/12/15 04:41:28;;;;;;;22.65;13.82;;;5.70;99.90;;;;;;5103182;27;20043;-77
2023/12/15 04:43:54;;;;;;;21.38;13.43;;;5.80;99.90;;;;;;5101880;28;20035;-77
2023/12/15 04:46:24;;;;;;;;;;;5.90;99.90;;;;;;5097093;28;20047;-77
2023/12/15 04:48:50;;;;;;;19.52;13.38;;;6.00;99.90;;;;;;5121688;27;20355;-77
2023/12/15 04:51:16;;;;;;;19.25;13.10;;;6.00;99.90;;;;;;5122088;27;20038;-77
2023/12/15 04:53:42;;;;;;;20.27;13.73;;;6.10;99.90;;;;;;5125835;27;20039;-77
2023/12/15 04:56:08;;;;;;;19.67;12.25;;;6.10;99.90;;;;;;5112229;27;20081;-77
2023/12/15 04:58:36;;;;;;;20.52;14.15;;;6.00;99.90;;;;;;5129005;27;20039;-77
2023/12/15 05:01:02;;;;;;;19.60;12.77;;;6.10;99.90;;;;;;5114151;27;20070;-78
2023/12/15 05:03:28;;;;;;;27.08;14.30;;;6.10;99.90;;;;;;5099718;28;20466;-77
2023/12/15 05:05:54;;;;;;;21.95;12.75;;;5.90;99.90;;;;;;5094792;27;20562;-77
2023/12/15 05:08:20;;;;;;;21.00;12.98;;;6.20;99.90;;;;;;5092947;28;20581;-77
2023/12/15 05:10:45;;;;;;;24.85;12.75;;;6.20;99.90;;;;;;5096308;28;20043;-78
2023/12/15 05:13:11;;;;;;;24.98;12.77;;;6.20;99.90;;;;;;5119945;27;20075;-77
2023/12/15 05:15:37;;;;;;;28.70;14.18;;;6.10;99.90;;;;;;5113480;27;20417;-77
2023/12/15 05:18:03;;;;;;;23.33;13.32;;;6.00;99.90;;;;;;5095905;28;20035;-77
2023/12/15 05:20:29;;;;;;;;;;;5.90;99.90;;;;;;5095189;28;20035;-78
2023/12/15 05:22:55;;;;;;;27.27;13.77;;;6.10;99.90;;;;;;5115217;27;19920;-77
2023/12/15 05:25:20;;;;;;;23.02;12.10;;;6.10;99.90;;;;;;5100580;27;20039;-77
2023/12/15 05:27:46;;;;;;;21.50;12.68;;;5.80;99.90;;;;;;5127590;27;20039;-77
2023/12/15 05:30:13;;;;;;;23.80;11.38;;;5.80;99.90;;;;;;5123429;27;20410;-78
2023/12/15 05:32:38;;;;;;;20.60;11.85;;;6.00;99.90;;;;;;5097951;28;20040;-77
2023/12/15 05:35:05;;;;;;;23.77;13.18;;;6.00;99.90;;;;;;5098889;27;20043;-78
2023/12/15 05:37:31;;;;;;;25.80;12.70;;;5.70;99.90;;;;;;5084971;27;20471;-78
2023/12/15 05:39:57;;;;;;;20.30;11.38;;;5.70;99.90;;;;;;5124189;27;20043;-78
2023/12/15 05:42:23;;;;;;;;;;;5.90;99.90;;;;;;5114732;27;20095;-79
2023/12/15 05:44:49;;;;;;;19.02;11.43;;;5.80;99.90;;;;;;5117373;27;20301;-78
2023/12/15 05:47:15;;;;;;;20.58;11.57;;;5.70;99.90;;;;;;5113945;27;20126;-78
2023/12/15 05:49:41;;;;;;;20.73;11.02;;;5.60;99.90;;;;;;5077511;27;20480;-78
2023/12/15 05:52:10;;;;;;;20.85;11.00;;;5.80;99.90;;;;;;5124070;27;20084;-78
2023/12/15 05:54:41;;;;;;;20.88;10.27;;;5.80;99.90;;;;;;5113196;27;20058;-78
2023/12/15 05:57:07;;;;;;;19.90;10.07;;;5.80;99.90;;;;;;5121680;27;20051;-78
2023/12/15 05:59:33;;;;;;;23.13;10.10;;;5.70;99.90;;;;;;5094077;28;20437;-78
2023/12/15 06:01:59;;;;;;;18.40;10.52;;;5.60;99.90;;;;;;5120507;27;20063;-78
2023/12/15 06:04:24;;;;;;;24.02;11.43;;;5.50;99.90;;;;;;5117219;27;20387;-78
2023/12/15 06:06:50;;;;;;;20.25;10.25;;;5.80;99.90;;;;;;5129200;27;20039;-78
2023/12/15 06:09:16;;;;;;;23.60;10.48;;;5.90;99.90;;;;;;5127046;27;20038;-78
2023/12/15 06:11:42;;;;;;;18.50;9.95;;;5.80;99.90;;;;;;5114707;27;20044;-78
2023/12/15 06:14:11;;;;;;;21.08;10.27;;;5.70;99.90;;;;;;5109958;27;20039;-78
2023/12/15 06:16:37;;;;;;;19.10;9.45;;;5.60;99.90;;;;;;5091010;28;20071;-78
2023/12/15 06:19:02;;;;;;;17.58;9.63;;;5.60;99.90;;;;;;5111396;28;20074;-78
2023/12/15 06:21:28;;;;;;;19.30;10.13;;;5.60;99.90;;;;;;5094650;28;20043;-78
2023/12/15 06:23:55;;;;;;;16.90;9.57;;;5.70;99.90;;;;;;5124580;27;20055;-78
2023/12/15 06:26:25;;;;;;;;;;;5.70;99.90;;;;;;5123904;27;20045;-78
2023/12/15 06:28:53;;;;;;;21.42;10.55;;;5.50;99.90;;;;;;5113081;27;19926;-78
2023/12/15 06:31:19;;;;;;;17.98;10.13;;;5.40;99.90;;;;;;5134012;27;20041;-78
2023/12/15 06:33:44;;;;;;;16.17;9.43;;;5.60;99.90;;;;;;5115534;27;20114;-79
2023/12/15 06:36:10;;;;;;;19.02;9.93;;;5.60;99.90;;;;;;5113275;28;20054;-79
2023/12/15 06:38:37;;;;;;;18.15;9.32;;;5.70;99.90;;;;;;5104386;28;20047;-79
2023/12/15 06:41:03;;;;;;;;;;;5.60;99.90;;;;;;5099983;28;20042;-77
2023/12/15 06:43:29;;;;;;;25.52;11.95;;;5.60;99.90;;;;;;5114602;28;19915;-78
2023/12/15 06:45:55;;;;;;;21.52;9.68;;;5.60;99.90;;;;;;5075572;28;20398;-78
2023/12/15 06:48:20;;;;;;;21.67;10.15;;;5.50;99.90;;;;;;5121635;28;20115;-79
2023/12/15 06:50:46;;;;;;;21.27;10.15;;;5.30;99.90;;;;;;5113775;28;20399;-77
2023/12/15 06:53:12;;;;;;;16.73;9.35;;;5.30;99.90;;;;;;5120835;28;20043;-78
2023/12/15 06:55:38;;;;;;;18.52;9.45;;;5.30;99.90;;;;;;5113368;28;20109;-77
2023/12/15 06:58:03;;;;;;;19.27;9.93;;;5.30;99.90;;;;;;5106567;28;20113;-77
2023/12/15 07:00:29;;;;;;;25.00;11.02;;;5.30;99.90;;;;;;5100341;28;20043;-78
2023/12/15 07:02:55;;;;;;;27.60;10.00;;;5.50;99.90;;;;;;5125481;28;20040;-78
2023/12/15 07:05:20;;;;;;;16.17;9.23;;;5.50;99.90;;;;;;5094776;28;20131;-77
2023/12/15 07:07:46;;;;;;;14.27;8.82;;;5.50;99.90;;;;;;5106687;28;20084;-77
2023/12/15 07:10:12;;;;;;;14.77;8.35;;;5.30;99.90;;;;;;5134042;27;20058;-78
2023/12/15 07:12:38;;;;;;;21.38;10.07;;;5.20;99.90;;;;;;5092620;28;20050;-79
2023/12/15 07:15:04;;;;;;;17.85;9.25;;;5.30;99.90;;;;;;5094718;28;20474;-79
2023/12/15 07:17:30;;;;;;;14.88;8.18;;;5.30;99.90;;;;;;5129205;27;20545;-79
2023/12/15 07:19:56;;;;;;;19.30;9.43;;;5.00;99.90;;;;;;5147439;27;20087;-79
2023/12/15 07:22:22;;;;;;;22.25;9.60;;;5.30;99.90;;;;;;5112761;28;20040;-79
2023/12/15 07:24:47;;;;;;;20.77;9.75;;;5.00;99.90;;;;;;5130515;27;20118;-79
2023/12/15 07:27:13;;;;;;;21.38;8.77;;;5.30;99.90;;;;;;5113463;28;20035;-79
2023/12/15 07:29:40;;;;;;;16.23;8.45;;;5.10;99.90;;;;;;5113591;28;20058;-79
2023/12/15 07:32:06;;;;;;;22.75;8.10;;;5.10;99.90;;;;;;5113227;28;20407;-79
2023/12/15 07:34:31;;;;;;;18.35;8.25;;;5.20;99.90;;;;;;5148040;27;20043;-79
2023/12/15 07:36:57;;;;;;;18.83;8.70;;;5.20;99.90;;;;;;5130059;27;20529;-79
2023/12/15 07:39:23;;;;;;;18.08;8.23;;;5.30;99.90;;;;;;5113511;28;20039;-79
2023/12/15 07:41:49;;;;;;;21.35;8.00;;;5.30;99.90;;;;;;5134040;27;20065;-79
2023/12/15 07:44:15;;;;;;;16.58;7.30;;;5.20;99.90;;;;;;5113047;28;20043;-79
2023/12/15 07:46:41;;;;;;;;;;;5.20;99.90;;;;;;5096435;28;20048;-79
2023/12/15 07:49:08;;;;;;;17.38;7.28;;;5.10;99.90;;;;;;5112897;28;19923;-78
2023/12/15 07:51:33;;;;;;;16.63;7.22;;;5.30;99.90;;;;;;5112976;28;20115;-79
2023/12/15 07:53:59;;;;;;;23.40;8.32;;;5.10;99.90;;;;;;5095904;28;20184;-78
2023/12/15 07:56:26;;;;;;;15.32;7.38;;;5.10;99.90;;;;;;5095889;28;20043;-79
2023/12/15 07:58:54;;;;;;;21.55;8.18;;;5.40;99.90;;;;;;5112676;28;20058;-79
2023/12/15 08:01:21;;;;;;;24.90;8.43;;;5.40;99.90;;;;;;5078913;28;20046;-79
2023/12/15 08:03:47;;;;;;;21.38;8.82;;;5.50;99.90;;;;;;5112693;28;20040;-79
2023/12/15 08:06:16;;;;;;;18.98;8.00;;;5.40;99.90;;;;;;5095931;28;20093;-79
2023/12/15 08:08:42;;;;;;;15.43;7.30;;;5.40;99.90;;;;;;5112301;28;20047;-79
2023/12/15 08:11:09;;;;;;;;;;;5.40;99.90;;;;;;5112936;28;20040;-80
2023/12/15 08:13:36;;;;;;;24.23;7.75;;;5.70;99.90;;;;;;5112825;28;19923;-80
2023/12/15 08:16:03;;;;;;;24.10;7.20;;;5.50;99.90;;;;;;5112256;28;20046;-78
2023/12/15 08:18:29;;;;;;;19.42;6.82;;;5.70;99.90;;;;;;5095958;28;20507;-78
2023/12/15 08:20:55;;;;;;;;;;;5.70;99.90;;;;;;5113137;28;20054;-78
2023/12/15 08:23:21;;;;;;;19.90;7.68;;;5.70;99.90;;;;;;5113107;28;19919;-79
2023/12/15 08:25:47;;;;;;;14.75;6.63;;;5.90;99.90;;;;;;5112151;28;20036;-78
2023/12/15 08:28:13;;;;;;;16.83;6.05;;;5.70;99.90;;;;;;5088999;28;20036;-78
2023/12/15 08:30:39;;;;;;;15.80;6.43;;;6.00;99.90;;;;;;5102463;28;20046;-78
2023/12/15 08:33:05;;;;;;;21.65;6.63;;;5.90;99.90;;;;;;5092587;28;20039;-79
2023/12/15 08:35:31;;;;;;;20.08;6.20;;;6.10;99.90;;;;;;5087146;28;20039;-79
2023/12/15 08:37:57;;;;;;;23.13;7.07;;;5.80;99.90;;;;;;5086102;28;20055;-78
2023/12/15 08:40:23;;;;;;;15.75;6.28;;;6.10;99.90;;;;;;5106065;27;20148;-79
2023/12/15 08:42:49;;;;;;;17.35;6.53;;;6.10;99.90;;;;;;5118776;27;20077;-79
2023/12/15 08:45:15;;;;;;;24.63;6.82;;;5.80;99.90;;;;;;5086450;28;20086;-78
2023/12/15 08:47:41;;;;;;;14.82;5.60;;;6.10;99.90;;;;;;5117940;27;20387;-79
2023/12/15 08:50:07;;;;;;;15.45;6.05;;;6.00;99.90;;;;;;5108726;27;20085;-79
2023/12/15 08:52:33;;;;;;;20.85;6.35;;;5.80;99.90;;;;;;5093962;28;20389;-79
2023/12/15 08:54:59;;;;;;;20.30;7.13;;;5.90;99.90;;;;;;5114488;27;20050;-78
2023/12/15 08:57:24;;;;;;;21.20;6.00;;;6.00;99.90;;;;;;5090086;28;20033;-79
2023/12/15 08:59:51;;;;;;;27.70;6.95;;;6.10;99.90;;;;;;5081542;28;20032;-79
2023/12/15 09:02:16;;;;;;;24.98;6.95;;;6.20;99.90;;;;;;5093041;28;20039;-79
2023/12/15 09:04:42;;;;;;;19.35;5.90;;;6.00;99.90;;;;;;5090287;27;20042;-79
2023/12/15 09:07:08;;;;;;;16.65;6.28;;;6.30;99.90;;;;;;5120193;27;20499;-78
2023/12/15 09:09:35;;;;;;;11.70;4.45;;;6.20;99.90;;;;;;5093711;27;20457;-78
2023/12/15 09:12:00;;;;;;;13.20;4.90;;;6.10;99.90;;;;;;5094576;28;20064;-79
2023/12/15 09:14:28;;;;;;;17.40;5.82;;;6.20;99.90;;;;;;5093240;28;20422;-77
2023/12/15 09:16:55;;;;;;;20.27;6.18;;;6.40;99.90;;;;;;5110687;28;20118;-77
2023/12/15 09:19:22;;;;;;;17.63;5.60;;;6.40;99.90;;;;;;5125224;27;20047;-77
2023/12/15 09:21:47;;;;;;;18.45;5.65;;;6.30;99.90;;;;;;5092416;28;20070;-77
2023/12/15 09:24:14;;;;;;;12.32;4.80;;;6.50;99.90;;;;;;5106798;27;20031;-77
2023/12/15 09:26:42;;;;;;;16.63;5.32;;;6.50;99.90;;;;;;5064785;28;20047;-77
2023/12/15 09:29:09;;;;;;;12.48;5.03;;;6.50;99.90;;;;;;5123049;27;20123;-77
2023/12/15 09:31:35;;;;;;;11.23;5.05;;;6.50;99.90;;;;;;5127996;27;20044;-77
2023/12/15 09:34:00;;;;;;;16.67;5.07;;;6.50;99.90;;;;;;5075006;28;20093;-77
2023/12/15 09:36:26;;;;;;;11.50;4.63;;;6.30;99.90;;;;;;5096173;28;20533;-77
2023/12/15 09:38:53;;;;;;;12.60;5.00;;;6.40;99.90;;;;;;5103129;27;20526;-77
2023/12/15 09:41:19;;;;;;;;;;;6.40;99.90;;;;;;5105288;28;20027;-77
2023/12/15 09:43:44;;;;;;;11.32;4.70;;;6.60;99.90;;;;;;5127520;27;20411;-77
2023/12/15 09:46:11;;;;;;;11.38;4.30;;;6.40;99.90;;;;;;5106553;28;20070;-77
2023/12/15 09:48:37;;;;;;;14.02;4.78;;;6.40;99.90;;;;;;5092563;28;20047;-77
2023/12/15 09:51:07;;;;;;;13.55;4.55;;;6.60;99.90;;;;;;5112492;27;20493;-77
2023/12/15 09:53:37;;;;;;;20.52;5.80;;;6.50;99.90;;;;;;5109217;27;20036;-77
2023/12/15 09:56:04;;;;;;;20.05;5.03;;;6.60;99.90;;;;;;5067690;28;20046;-77
2023/12/15 09:58:30;;;;;;;16.90;5.32;;;6.70;99.90;;;;;;5111159;27;20065;-77
2023/12/15 10:00:56;;;;;;;16.70;4.40;;;6.80;99.90;;;;;;5103319;27;20036;-77
2023/12/15 10:03:22;;;;;;;15.52;4.43;;;6.90;99.90;;;;;;5098067;27;20035;-77
2023/12/15 10:05:48;;;;;;;22.50;5.45;;;6.90;99.90;;;;;;5108079;27;20071;-78
2023/12/15 10:08:14;;;;;;;14.15;4.43;;;7.00;99.90;;;;;;5092282;28;20071;-77
2023/12/15 10:10:39;;;;;;;19.65;5.20;;;7.00;99.90;;;;;;5109819;27;20376;-77
2023/12/15 10:13:05;;;;;;;19.85;5.18;;;7.20;99.90;;;;;;5079176;28;20112;-77
2023/12/15 10:15:31;;;;;;;12.82;3.92;;;7.20;99.90;;;;;;5093397;28;20049;-78
2023/12/15 10:17:58;;;;;;;17.30;4.93;;;7.40;99.90;;;;;;5120050;27;20077;-78
2023/12/15 10:20:24;;;;;;;27.02;5.18;;;7.30;99.90;;;;;;5104557;28;20045;-77
2023/12/15 10:23:01;;;;;;;18.98;4.50;;;7.40;99.90;;;;;;5109728;28;20106;-78
2023/12/15 10:25:27;;;;;;;23.52;4.95;;;7.50;99.90;;;;;;5093149;28;20254;-78
2023/12/15 10:27:53;;;;;;;17.02;4.40;;;7.60;99.90;;;;;;5093299;28;20039;-77
2023/12/15 10:30:19;;;;;;;17.48;4.90;;;7.60;99.90;;;;;;5092508;28;20548;-78
2023/12/15 10:32:45;;;;;;;;;;;7.60;99.90;;;;;;5131052;27;20071;-78
2023/12/15 10:35:12;;;;;;;24.95;5.80;;;7.60;99.90;;;;;;5117260;28;19947;-77
2023/12/15 10:37:39;;;;;;;21.92;4.47;;;7.70;99.90;;;;;;5112171;28;20067;-78
2023/12/15 10:40:05;;;;;;;13.82;3.72;;;7.80;99.90;;;;;;5129374;28;20069;-77
2023/12/15 10:42:31;;;;;;;21.98;4.75;;;7.80;99.90;;;;;;5112844;28;20088;-78
2023/12/15 10:44:58;;;;;;;17.58;4.35;;;7.80;99.90;;;;;;5113990;28;20040;-77
2023/12/15 10:47:26;;;;;;;19.42;4.55;;;7.80;99.90;;;;;;5089099;28;20043;-78
2023/12/15 10:49:56;;;;;;;24.38;4.88;;;7.90;99.90;;;;;;5078691;27;20475;-78
2023/12/15 10:52:23;;;;;;;20.85;5.78;;;7.90;99.90;;;;;;5134672;27;20050;-78
2023/12/15 10:54:50;;;;;;;19.77;4.40;;;7.90;99.90;;;;;;5123080;27;20490;-78
2023/12/15 10:57:16;;;;;;;22.05;4.82;;;7.90;99.90;;;;;;5114739;28;20087;-78
2023/12/15 10:59:42;;;;;;;26.75;5.45;;;7.90;99.90;;;;;;5096996;28;20490;-77
2023/12/15 11:02:13;;;;;;;21.92;5.47;;;8.10;99.90;;;;;;5097142;28;20051;-77
2023/12/15 11:04:49;;;;;;;22.23;4.85;;;8.10;99.90;;;;;;5097378;28;20046;-78
2023/12/15 11:07:24;;;;;;;24.60;6.18;;;8.10;99.90;;;;;;5097180;28;20088;-78
2023/12/15 11:09:59;;;;;;;27.92;5.07;;;8.10;99.90;;;;;;5082350;27;20043;-78
2023/12/15 11:12:29;;;;;;;21.77;4.90;;;8.30;99.90;;;;;;5099004;28;20043;-78
2023/12/15 11:15:12;;;;;;;28.10;5.50;;;8.30;99.90;;;;;;5113030;28;20042;-77
2023/12/15 11:17:49;;;;;;;17.13;5.07;;;8.30;99.90;;;;;;5101352;28;20625;-78
2023/12/15 11:20:20;;;;;;;;;;;8.40;99.90;;;;;;5114513;27;20038;-77
2023/12/15 11:23:09;;;;;;;25.08;5.80;;;8.50;99.90;;;;;;5103584;28;19920;-76
2023/12/15 11:25:37;;;;;;;22.05;4.28;;;8.50;99.90;;;;;;5118081;27;20039;-78
2023/12/15 11:28:08;;;;;;;26.23;5.00;;;8.60;99.90;;;;;;5098333;28;20114;-81
2023/12/15 11:30:41;;;;;;;26.40;4.75;;;8.70;99.90;;;;;;5068848;28;20073;-77
2023/12/15 11:33:31;;;;;;;23.80;5.50;;;8.70;99.90;;;;;;5108245;27;20556;-77
2023/12/15 11:36:01;;;;;;;18.05;4.85;;;8.80;99.90;;;;;;5101707;27;20423;-78
2023/12/15 11:38:28;;;;;;;22.20;5.07;;;9.00;99.90;;;;;;5097625;27;20088;-78
2023/12/15 11:40:54;;;;;;;18.60;5.07;;;9.10;99.90;;;;;;5097131;27;20396;-79
2023/12/15 11:43:20;;;;;;;33.90;6.45;;;9.20;99.90;;;;;;5095449;28;20035;-78
2023/12/15 11:45:48;;;;;;;;;;;9.20;99.90;;;;;;5118104;27;20035;-78
2023/12/15 11:48:14;;;;;;;23.52;6.07;;;9.20;99.90;;;;;;5104982;27;19915;-78
2023/12/15 11:50:43;;;;;;;25.95;5.15;;;9.20;99.90;;;;;;5108980;28;20230;-78
2023/12/15 11:53:10;;;;;;;34.90;6.25;;;9.20;99.90;;;;;;5107891;27;20047;-78
2023/12/15 11:55:36;;;;;;;23.80;5.53;;;9.20;99.90;;;;;;5092766;28;20126;-78
2023/12/15 11:58:06;;;;;;;;;;;9.20;99.90;;;;;;5091147;28;20073;-78
2023/12/15 12:00:32;;;;;;;26.30;5.40;;;9.30;99.90;;;;;;5092222;28;19927;-78
2023/12/15 12:02:58;;;;;;;30.55;6.05;;;9.40;99.90;;;;;;5086571;28;20044;-77
2023/12/15 12:05:24;;;;;;;;;;;9.40;99.90;;;;;;5105976;28;20115;-78
2023/12/15 12:07:50;;;;;;;28.77;5.47;;;9.50;99.90;;;;;;5077236;28;20030;-78
2023/12/15 12:10:16;;;;;;;33.53;6.55;;;9.60;99.90;;;;;;5094594;28;20046;-77
2023/12/15 12:12:42;;;;;;;30.02;6.32;;;9.70;99.90;;;;;;5113552;27;20183;-78
2023/12/15 12:15:12;;;;;;;29.00;6.07;;;9.70;99.90;;;;;;5111100;28;20538;-79
2023/12/15 12:17:41;;;;;;;28.92;5.38;;;9.70;99.90;;;;;;5090158;27;20043;-77
2023/12/15 12:20:10;;;;;;;22.70;5.07;;;9.60;99.90;;;;;;5108394;27;20042;-78
2023/12/15 12:22:46;;;;;;;30.52;6.57;;;9.50;99.90;;;;;;5111507;27;20043;-77
2023/12/15 12:25:16;;;;;;;27.90;5.35;;;9.40;99.90;;;;;;5082992;28;20118;-78
2023/12/15 12:27:42;;;;;;;20.05;5.45;;;9.40;99.90;;;;;;5074952;28;20081;-78
2023/12/15 12:30:16;;;;;;;27.02;5.80;;;9.40;99.90;;;;;;5129196;27;20135;-77
2023/12/15 12:32:43;;;;;;;26.05;4.75;;;9.30;99.90;;;;;;5105715;27;20075;-78
2023/12/15 12:35:09;;;;;;;19.13;4.28;;;9.30;99.90;;;;;;5096701;28;20509;-77
2023/12/15 12:37:35;;;;;;;31.63;5.63;;;9.20;99.90;;;;;;5091214;27;20061;-80
2023/12/15 12:40:05;;;;;;;;;;;9.20;99.90;;;;;;5109152;27;20046;-77
2023/12/15 12:42:33;;;;;;;17.02;4.28;;;9.20;99.90;;;;;;5110738;27;19923;-78